Time;durP1;ratioP1;P1;durP2;ratioP2;P2;SDS_P1;SDS_P2;PMS_P1;PMS_P2;Temp;Humidity;BMP_temperature;BMP_pressure;BME280_temperature;BME280_humidity;BME280_pressure;Samples;Min_cycle;Max_cycle;Signal;HPM_P1;HPM_P2
2022/11/13 00:02:03;;;;;;;9.90;9.10;;;8.60;91.00;;;;;;5025823;28;20446;-72
2022/11/13 00:04:30;;;;;;;10.10;9.30;;;8.60;91.10;;;;;;5030051;28;20881;-70
2022/11/13 00:06:57;;;;;;;9.60;8.80;;;8.60;91.10;;;;;;5026724;28;20434;-71
2022/11/13 00:09:23;;;;;;;9.05;8.35;;;8.50;91.10;;;;;;5026823;28;20435;-70
2022/11/13 00:11:50;;;;;;;9.82;9.02;;;8.50;91.10;;;;;;5024265;28;20436;-71
2022/11/13 00:14:18;;;;;;;10.25;9.45;;;8.50;91.20;;;;;;5024870;28;20442;-70
2022/11/13 00:16:45;;;;;;;9.80;9.00;;;8.40;91.20;;;;;;5022530;28;20446;-70
2022/11/13 00:19:12;;;;;;;9.70;8.90;;;8.40;91.30;;;;;;5023661;28;20442;-71
2022/11/13 00:21:39;;;;;;;9.85;9.05;;;8.40;91.30;;;;;;5024171;28;20430;-71
2022/11/13 00:24:06;;;;;;;9.87;9.07;;;8.40;91.40;;;;;;5023314;28;20801;-71
2022/11/13 00:26:33;;;;;;;9.90;9.10;;;8.40;91.40;;;;;;5025404;28;20434;-71
2022/11/13 00:29:01;;;;;;;9.50;8.80;;;8.40;91.50;;;;;;5031174;28;20434;-71
2022/11/13 00:31:30;;;;;;;9.65;8.85;;;8.40;91.50;;;;;;5023839;28;20843;-71
2022/11/13 00:33:58;;;;;;;9.80;9.00;;;8.40;91.60;;;;;;5025286;28;20446;-70
2022/11/13 00:36:27;;;;;;;9.70;8.90;;;8.30;91.60;;;;;;5023985;28;20434;-71
2022/11/13 00:38:54;;;;;;;10.10;9.23;;;8.30;91.60;;;;;;5022232;28;20436;-70
2022/11/13 00:41:21;;;;;;;9.70;9.00;;;8.30;91.50;;;;;;5025189;28;20435;-71
2022/11/13 00:43:48;;;;;;;9.02;8.23;;;8.40;91.60;;;;;;5022876;28;20441;-72
2022/11/13 00:46:15;;;;;;;10.07;9.27;;;8.30;91.40;;;;;;5024016;28;20435;-71
2022/11/13 00:48:43;;;;;;;9.38;8.68;;;8.30;91.40;;;;;;5024639;28;20502;-71
2022/11/13 00:51:10;;;;;;;9.90;9.10;;;8.30;91.40;;;;;;5024694;28;20462;-69
2022/11/13 00:53:36;;;;;;;9.65;8.95;;;8.30;91.40;;;;;;5023929;28;20518;-70
2022/11/13 00:56:03;;;;;;;9.82;9.00;;;8.30;91.60;;;;;;5025518;28;20917;-71
2022/11/13 00:58:30;;;;;;;9.30;8.60;;;8.30;91.60;;;;;;5024925;28;20447;-70
2022/11/13 01:01:04;;;;;;;9.43;8.63;;;8.20;91.60;;;;;;5025979;28;20542;-70
2022/11/13 01:03:31;;;;;;;9.38;8.68;;;8.20;91.60;;;;;;5024242;28;20438;-71
2022/11/13 01:05:59;;;;;;;10.02;9.23;;;8.20;91.60;;;;;;5024435;28;20428;-70
2022/11/13 01:08:26;;;;;;;9.63;8.73;;;8.20;91.60;;;;;;5021761;28;20430;-73
2022/11/13 01:10:52;;;;;;;9.60;8.80;;;8.20;91.60;;;;;;5027709;28;20430;-70
2022/11/13 01:13:19;;;;;;;9.30;8.50;;;8.20;91.60;;;;;;5019737;28;20431;-70
2022/11/13 01:15:46;;;;;;;10.00;9.20;;;8.20;91.70;;;;;;5028112;28;20442;-72
2022/11/13 01:18:13;;;;;;;8.90;8.20;;;8.20;91.70;;;;;;5018955;28;21428;-71
2022/11/13 01:20:40;;;;;;;9.90;9.10;;;8.20;91.60;;;;;;5027499;28;20431;-70
2022/11/13 01:23:08;;;;;;;9.85;9.05;;;8.10;91.70;;;;;;5025336;28;20439;-70
2022/11/13 01:25:36;;;;;;;9.48;8.77;;;8.10;91.80;;;;;;5021495;28;20438;-72
2022/11/13 01:28:02;;;;;;;9.65;8.88;;;8.10;91.90;;;;;;5023819;28;20996;-71
2022/11/13 01:30:29;;;;;;;9.60;8.70;;;8.10;92.00;;;;;;5020989;28;20435;-70
2022/11/13 01:32:56;;;;;;;9.80;9.00;;;8.20;91.90;;;;;;5022956;28;20444;-71
2022/11/13 01:35:23;;;;;;;9.57;8.77;;;8.20;92.00;;;;;;5025508;28;20431;-71
2022/11/13 01:37:49;;;;;;;9.18;8.48;;;8.20;92.00;;;;;;5024299;28;20438;-71
2022/11/13 01:40:18;;;;;;;9.52;8.73;;;8.20;92.00;;;;;;5024877;28;20439;-70
2022/11/13 01:42:44;;;;;;;9.07;8.38;;;8.10;92.00;;;;;;5023204;28;21055;-71
2022/11/13 01:46:03;;;;;;;9.52;8.82;;;8.10;92.00;;;;;;5026129;28;21177;-71
2022/11/13 01:48:36;;;;;;;9.00;8.30;;;8.10;92.00;;;;;;4929854;29;20435;-70
2022/11/13 01:51:08;;;;;;;9.88;9.07;;;8.10;92.00;;;;;;4928425;29;20447;-72
2022/11/13 01:53:35;;;;;;;9.00;8.30;;;8.10;92.10;;;;;;4976091;28;20434;-71
2022/11/13 01:56:03;;;;;;;9.75;8.95;;;8.00;92.10;;;;;;5023387;28;20427;-71
2022/11/13 01:58:30;;;;;;;9.80;9.00;;;8.00;92.20;;;;;;5020548;28;20445;-71
2022/11/13 02:00:57;;;;;;;9.50;8.80;;;8.00;92.30;;;;;;5025872;28;20438;-71
2022/11/13 02:03:24;;;;;;;9.50;8.70;;;8.00;92.30;;;;;;5022633;28;20904;-70
2022/11/13 02:05:51;;;;;;;9.68;8.88;;;8.00;92.30;;;;;;5023660;28;20427;-70
2022/11/13 02:08:18;;;;;;;9.20;8.40;;;8.00;92.40;;;;;;5025707;28;20441;-71
2022/11/13 02:10:45;;;;;;;9.30;8.60;;;8.00;92.40;;;;;;5024036;28;20442;-71
2022/11/13 02:13:14;;;;;;;9.95;9.15;;;8.00;92.50;;;;;;5023214;28;20437;-71
2022/11/13 02:15:42;;;;;;;9.70;8.90;;;7.90;92.50;;;;;;5023905;28;20487;-70
2022/11/13 02:18:10;;;;;;;9.80;9.00;;;7.90;92.60;;;;;;5024424;28;20438;-71
2022/11/13 02:20:44;;;;;;;9.82;9.02;;;7.90;92.70;;;;;;5024531;28;20431;-71
2022/11/13 02:23:17;;;;;;;9.40;8.70;;;7.90;92.70;;;;;;5025015;28;20431;-71
2022/11/13 02:25:47;;;;;;;9.95;9.15;;;7.90;92.80;;;;;;5024954;28;20442;-71
2022/11/13 02:28:14;;;;;;;10.02;9.32;;;7.80;92.70;;;;;;5018951;28;20884;-70
2022/11/13 02:30:41;;;;;;;9.30;8.60;;;7.90;92.60;;;;;;5028254;28;20435;-70
2022/11/13 02:33:23;;;;;;;10.10;9.30;;;7.80;92.70;;;;;;5028942;28;20469;-71
2022/11/13 02:35:50;;;;;;;10.57;9.75;;;7.80;92.60;;;;;;5028346;28;20453;-71
2022/11/13 02:38:17;;;;;;;10.10;9.30;;;7.80;92.70;;;;;;5028786;28;20442;-72
2022/11/13 02:40:45;;;;;;;10.27;9.48;;;7.80;92.70;;;;;;5025874;28;20443;-71
2022/11/13 02:43:12;;;;;;;10.35;9.55;;;7.70;92.70;;;;;;5022747;28;20441;-71
2022/11/13 02:45:38;;;;;;;10.20;9.40;;;7.80;92.90;;;;;;5025923;28;20431;-71
2022/11/13 02:48:06;;;;;;;9.90;9.20;;;7.70;92.80;;;;;;5028769;28;20431;-72
2022/11/13 02:50:34;;;;;;;9.40;8.70;;;7.70;92.80;;;;;;5029129;28;20450;-72
2022/11/13 02:53:02;;;;;;;9.57;8.88;;;7.70;92.80;;;;;;5027350;28;20430;-71
2022/11/13 02:55:28;;;;;;;9.85;9.10;;;7.70;92.80;;;;;;5028964;28;20438;-70
2022/11/13 02:57:57;;;;;;;9.67;8.87;;;7.60;92.80;;;;;;5028122;28;20466;-71
2022/11/13 03:00:24;;;;;;;10.07;9.27;;;7.70;92.70;;;;;;5025969;28;20805;-71
2022/11/13 03:02:50;;;;;;;10.07;9.27;;;7.60;92.70;;;;;;5025229;28;20442;-71
2022/11/13 03:05:17;;;;;;;9.73;9.00;;;7.60;92.80;;;;;;5026039;28;20441;-71
2022/11/13 03:07:44;;;;;;;9.88;9.07;;;7.60;92.90;;;;;;5026543;28;20807;-70
2022/11/13 03:10:11;;;;;;;10.45;9.57;;;7.50;92.90;;;;;;5025287;28;20934;-70
2022/11/13 03:12:39;;;;;;;9.73;8.93;;;7.50;93.00;;;;;;5023286;28;20441;-70
2022/11/13 03:15:09;;;;;;;9.82;9.02;;;7.50;93.10;;;;;;5031257;28;20435;-70
2022/11/13 03:17:35;;;;;;;10.50;9.70;;;7.50;93.10;;;;;;5025284;28;20434;-71
2022/11/13 03:20:03;;;;;;;10.20;9.40;;;7.50;93.10;;;;;;5025221;28;20442;-71
2022/11/13 03:22:29;;;;;;;10.43;9.52;;;7.40;93.20;;;;;;5024760;28;20438;-70
2022/11/13 03:24:57;;;;;;;10.30;9.40;;;7.40;93.30;;;;;;5025414;28;20425;-70
2022/11/13 03:27:23;;;;;;;10.65;9.85;;;7.40;93.50;;;;;;5025060;28;20488;-71
2022/11/13 03:29:50;;;;;;;10.02;9.23;;;7.30;93.50;;;;;;5026452;28;20466;-70
2022/11/13 03:32:18;;;;;;;10.37;9.57;;;7.30;93.50;;;;;;5023803;28;20434;-70
2022/11/13 03:34:45;;;;;;;10.60;9.70;;;7.30;93.50;;;;;;5026150;28;20543;-73
2022/11/13 03:37:12;;;;;;;10.40;9.60;;;7.30;93.50;;;;;;5026102;28;20433;-70
2022/11/13 03:39:39;;;;;;;10.40;9.60;;;7.30;93.60;;;;;;5026688;28;21228;-73
2022/11/13 03:42:05;;;;;;;11.00;10.10;;;7.30;93.60;;;;;;5024390;28;20435;-72
2022/11/13 03:44:32;;;;;;;10.40;9.50;;;7.30;93.50;;;;;;5024776;28;20466;-70
2022/11/13 03:46:59;;;;;;;9.90;9.10;;;7.30;93.40;;;;;;5024552;28;20423;-69
2022/11/13 03:49:27;;;;;;;10.10;9.25;;;7.30;93.40;;;;;;5026187;28;20443;-72
2022/11/13 03:51:54;;;;;;;9.80;9.00;;;7.30;93.50;;;;;;5025047;28;20439;-70
2022/11/13 03:54:20;;;;;;;9.80;9.05;;;7.30;93.40;;;;;;5024518;28;20433;-72
2022/11/13 03:56:47;;;;;;;9.68;8.98;;;7.30;93.30;;;;;;5024880;28;20536;-71
2022/11/13 03:59:14;;;;;;;9.32;8.63;;;7.20;93.30;;;;;;5026876;28;20435;-72
2022/11/13 04:01:40;;;;;;;9.93;9.03;;;7.20;93.40;;;;;;5025790;28;20438;-69
2022/11/13 04:04:07;;;;;;;9.32;8.50;;;7.20;93.30;;;;;;5024756;28;20852;-71
2022/11/13 04:06:36;;;;;;;10.07;9.18;;;7.20;93.20;;;;;;5025907;28;21020;-71
2022/11/13 04:09:03;;;;;;;9.73;8.93;;;7.20;93.20;;;;;;5025505;28;20439;-70
2022/11/13 04:11:30;;;;;;;9.77;9.03;;;7.10;93.20;;;;;;5026725;28;20430;-70
2022/11/13 04:13:57;;;;;;;9.07;8.27;;;7.10;93.10;;;;;;5021095;28;20525;-70
2022/11/13 04:16:24;;;;;;;8.70;8.00;;;7.20;93.00;;;;;;5026365;28;20430;-72
2022/11/13 04:18:50;;;;;;;8.95;8.15;;;7.20;92.60;;;;;;5029766;28;20435;-70
2022/11/13 04:21:17;;;;;;;8.88;8.18;;;7.20;92.50;;;;;;5016956;28;20445;-72
2022/11/13 04:23:45;;;;;;;8.55;7.85;;;7.20;92.40;;;;;;5020995;28;20427;-71
2022/11/13 04:26:12;;;;;;;8.38;7.75;;;7.20;92.20;;;;;;5019336;28;20441;-69
2022/11/13 04:28:39;;;;;;;8.10;7.50;;;7.20;91.80;;;;;;5025073;28;20940;-70
2022/11/13 04:31:05;;;;;;;7.80;7.20;;;7.30;91.60;;;;;;5026321;28;20442;-71
2022/11/13 04:33:32;;;;;;;7.47;6.97;;;7.30;91.50;;;;;;5026497;28;20434;-70
2022/11/13 04:35:59;;;;;;;7.90;7.30;;;7.30;91.30;;;;;;5025786;28;20431;-70
2022/11/13 04:38:26;;;;;;;7.72;7.13;;;7.40;91.10;;;;;;5026348;28;20434;-72
2022/11/13 04:42:47;;;;;;;7.80;7.20;;;7.40;90.90;;;;;;5025644;28;20438;-70
2022/11/13 04:43:40;;;;;;;7.40;6.80;;;7.40;90.90;;;;;;5024300;28;21004;-69
2022/11/13 04:46:07;;;;;;;7.70;7.10;;;7.30;90.70;;;;;;5033338;28;20431;-71
2022/11/13 04:48:33;;;;;;;7.60;7.00;;;7.30;90.50;;;;;;5021562;28;20441;-71
2022/11/13 04:51:00;;;;;;;7.68;7.07;;;7.30;90.40;;;;;;5026142;28;20945;-72
2022/11/13 04:53:27;;;;;;;7.82;7.13;;;7.30;90.60;;;;;;5025352;28;20431;-73
2022/11/13 04:55:55;;;;;;;8.90;8.20;;;7.30;90.60;;;;;;5025574;28;20446;-71
2022/11/13 04:58:22;;;;;;;8.43;7.72;;;7.20;90.80;;;;;;5025993;28;20434;-71
2022/11/13 05:00:48;;;;;;;8.10;7.50;;;7.20;91.00;;;;;;5023759;28;20482;-70
2022/11/13 05:03:15;;;;;;;7.88;7.28;;;7.20;91.00;;;;;;5025198;28;20801;-72
2022/11/13 05:05:42;;;;;;;8.60;7.80;;;7.20;91.20;;;;;;5025348;28;20438;-73
2022/11/13 05:08:09;;;;;;;8.60;8.00;;;7.20;91.20;;;;;;5026800;28;20435;-70
2022/11/13 05:10:36;;;;;;;9.00;8.30;;;7.10;91.20;;;;;;5026570;28;20431;-72
2022/11/13 05:13:04;;;;;;;8.32;7.72;;;7.10;91.30;;;;;;5024780;28;20801;-72
2022/11/13 05:15:30;;;;;;;8.63;7.93;;;7.00;91.30;;;;;;5031573;28;20443;-71
2022/11/13 05:17:57;;;;;;;8.23;7.53;;;7.00;91.50;;;;;;5030454;28;20431;-71
2022/11/13 05:20:24;;;;;;;8.23;7.63;;;6.90;91.40;;;;;;5027202;28;20430;-71
2022/11/13 05:22:51;;;;;;;8.23;7.53;;;6.90;91.60;;;;;;5027850;28;20431;-72
2022/11/13 05:25:17;;;;;;;8.20;7.60;;;6.80;91.60;;;;;;5033329;28;20438;-71
2022/11/13 05:27:44;;;;;;;8.40;7.80;;;6.80;91.60;;;;;;5027486;28;20437;-71
2022/11/13 05:30:12;;;;;;;8.77;8.07;;;6.80;91.70;;;;;;5027461;28;20418;-70
2022/11/13 05:32:39;;;;;;;8.10;7.40;;;6.80;91.80;;;;;;5025841;28;20445;-70
2022/11/13 05:35:06;;;;;;;8.77;8.00;;;6.80;91.90;;;;;;5033083;28;20440;-69
2022/11/13 05:37:33;;;;;;;7.70;7.10;;;6.80;91.90;;;;;;5019920;28;20514;-70
2022/11/13 05:40:00;;;;;;;7.53;7.03;;;6.80;92.20;;;;;;5026426;28;20414;-70
2022/11/13 05:42:26;;;;;;;7.45;6.88;;;6.80;91.70;;;;;;5025933;28;20489;-70
2022/11/13 05:44:53;;;;;;;7.40;6.90;;;6.80;91.70;;;;;;5026795;28;20423;-70
2022/11/13 05:47:21;;;;;;;7.65;7.05;;;6.80;91.70;;;;;;5026329;28;20427;-70
2022/11/13 05:49:48;;;;;;;7.40;6.80;;;6.80;91.50;;;;;;5084228;22;20441;-72
2022/11/13 05:52:14;;;;;;;7.68;7.07;;;6.80;91.40;;;;;;5076620;28;20414;-73
2022/11/13 05:54:41;;;;;;;7.30;6.70;;;6.80;91.30;;;;;;5087910;28;20420;-73
2022/11/13 05:57:08;;;;;;;7.22;6.63;;;6.80;91.30;;;;;;5085146;28;20440;-72
2022/11/13 05:59:36;;;;;;;7.70;7.10;;;6.80;91.20;;;;;;5065644;28;22618;-72
2022/11/13 06:02:03;;;;;;;7.10;6.50;;;6.80;91.20;;;;;;5061786;28;20533;-71
2022/11/13 06:04:31;;;;;;;7.65;6.95;;;6.80;90.90;;;;;;5056532;28;20443;-74
2022/11/13 06:06:58;;;;;;;7.05;6.55;;;6.80;90.80;;;;;;5060994;28;20431;-76
2022/11/13 06:09:25;;;;;;;6.97;6.47;;;6.70;90.80;;;;;;5070094;28;20863;-73
2022/11/13 06:11:52;;;;;;;7.47;6.88;;;6.70;90.70;;;;;;5059139;28;20542;-73
2022/11/13 06:14:19;;;;;;;7.40;6.80;;;6.70;90.70;;;;;;5075990;28;20489;-72
2022/11/13 06:16:45;;;;;;;7.18;6.68;;;6.70;90.70;;;;;;5065100;28;20800;-73
2022/11/13 06:19:12;;;;;;;7.93;7.22;;;6.70;90.60;;;;;;5068282;28;20923;-73
2022/11/13 06:21:41;;;;;;;7.32;6.72;;;6.70;90.50;;;;;;5066394;28;20453;-73
2022/11/13 06:24:10;;;;;;;6.85;6.35;;;6.70;90.50;;;;;;5060509;28;20441;-71
2022/11/13 06:26:37;;;;;;;7.22;6.65;;;6.70;90.30;;;;;;5062690;28;20438;-72
2022/11/13 06:29:06;;;;;;;7.03;6.43;;;6.70;90.10;;;;;;5062556;28;20427;-72
2022/11/13 06:31:35;;;;;;;6.80;6.30;;;6.70;90.00;;;;;;5062342;28;20450;-73
2022/11/13 06:34:03;;;;;;;6.97;6.37;;;6.70;89.90;;;;;;5059555;28;20450;-73
2022/11/13 06:36:32;;;;;;;7.35;6.65;;;6.70;89.80;;;;;;5068289;28;20441;-72
2022/11/13 06:39:01;;;;;;;6.97;6.45;;;6.70;89.80;;;;;;5060322;28;20433;-71
2022/11/13 06:41:30;;;;;;;6.88;6.38;;;6.70;89.60;;;;;;5063354;28;20503;-71
2022/11/13 06:43:58;;;;;;;6.30;5.80;;;6.70;89.30;;;;;;5068151;28;20443;-71
2022/11/13 06:46:27;;;;;;;6.40;5.90;;;6.70;88.40;;;;;;5064873;28;20504;-72
2022/11/13 06:48:54;;;;;;;6.55;6.05;;;6.70;87.80;;;;;;5072850;28;20579;-71
2022/11/13 06:51:23;;;;;;;5.60;5.20;;;6.70;87.40;;;;;;5057269;28;20429;-71
2022/11/13 06:53:50;;;;;;;6.05;5.55;;;6.60;86.80;;;;;;5059065;28;20431;-73
2022/11/13 06:56:19;;;;;;;6.13;5.60;;;6.60;86.70;;;;;;5059442;28;20427;-72
2022/11/13 06:58:46;;;;;;;6.00;5.50;;;6.60;86.80;;;;;;5066962;28;20431;-71
2022/11/13 07:01:15;;;;;;;5.88;5.38;;;6.60;86.50;;;;;;5054756;28;20465;-72
2022/11/13 07:03:42;;;;;;;5.60;5.20;;;6.60;86.10;;;;;;5060106;28;20438;-73
2022/11/13 07:06:12;;;;;;;6.32;5.60;;;6.60;85.70;;;;;;5057141;28;20542;-73
2022/11/13 07:08:39;;;;;;;5.60;5.10;;;6.60;85.90;;;;;;5063613;28;20423;-74
2022/11/13 07:11:07;;;;;;;6.50;6.00;;;6.60;85.80;;;;;;5065688;28;20446;-73
2022/11/13 07:13:37;;;;;;;6.05;5.60;;;6.60;85.90;;;;;;5054510;28;20425;-75
2022/11/13 07:16:06;;;;;;;5.85;5.45;;;6.60;86.00;;;;;;5062187;28;20506;-74
2022/11/13 07:18:33;;;;;;;6.50;6.00;;;6.60;86.50;;;;;;5061741;28;20427;-73
2022/11/13 07:21:05;;;;;;;6.50;5.90;;;6.60;86.50;;;;;;5059315;28;20441;-73
2022/11/13 07:23:32;;;;;;;5.60;5.10;;;6.60;86.30;;;;;;5064847;28;20513;-73
2022/11/13 07:25:58;;;;;;;5.50;5.10;;;6.70;86.00;;;;;;5060578;28;20455;-73
2022/11/13 07:28:25;;;;;;;5.30;4.90;;;6.70;85.30;;;;;;5061406;28;20660;-73
2022/11/13 07:30:53;;;;;;;5.32;4.93;;;6.70;84.50;;;;;;5062860;28;20441;-72
2022/11/13 07:33:20;;;;;;;4.30;4.00;;;6.80;84.30;;;;;;5060600;28;20446;-72
2022/11/13 07:35:47;;;;;;;4.65;4.32;;;6.90;82.90;;;;;;5056871;28;20553;-72
2022/11/13 07:38:14;;;;;;;4.83;4.43;;;6.90;82.80;;;;;;5062125;28;20807;-72
2022/11/13 07:40:40;;;;;;;5.03;4.63;;;7.00;82.20;;;;;;5057328;28;20416;-73
2022/11/13 07:43:08;;;;;;;4.75;4.38;;;7.10;82.30;;;;;;5060781;28;20448;-73
2022/11/13 07:45:35;;;;;;;5.18;4.78;;;7.30;81.70;;;;;;5058035;28;20449;-72
2022/11/13 07:48:04;;;;;;;5.03;4.65;;;7.40;81.30;;;;;;5058356;28;20450;-72
2022/11/13 07:50:33;;;;;;;5.40;4.90;;;7.50;81.20;;;;;;5051113;28;20448;-72
2022/11/13 07:53:01;;;;;;;5.28;4.78;;;7.70;81.00;;;;;;5057849;28;21152;-73
2022/11/13 07:55:29;;;;;;;4.80;4.40;;;7.70;79.40;;;;;;5055528;28;20431;-72
2022/11/13 07:57:57;;;;;;;5.30;4.90;;;7.90;79.60;;;;;;5060384;28;20942;-72
2022/11/13 08:00:24;;;;;;;4.90;4.50;;;8.00;79.20;;;;;;5050760;28;20811;-74
2022/11/13 08:02:51;;;;;;;4.80;4.40;;;8.20;78.60;;;;;;5067036;28;20435;-75
2022/11/13 08:05:19;;;;;;;4.50;4.20;;;8.40;77.20;;;;;;5068532;28;20431;-75
2022/11/13 08:07:47;;;;;;;4.93;4.53;;;8.60;76.20;;;;;;5066834;28;20429;-75
2022/11/13 08:10:14;;;;;;;5.07;4.68;;;8.80;75.20;;;;;;5071312;28;20429;-74
2022/11/13 08:12:41;;;;;;;4.70;4.40;;;9.00;74.90;;;;;;5070357;28;20443;-75
2022/11/13 08:15:09;;;;;;;4.93;4.53;;;9.30;73.90;;;;;;5062854;28;20427;-73
2022/11/13 08:17:35;;;;;;;4.50;4.20;;;9.50;72.10;;;;;;5060545;28;20430;-75
2022/11/13 08:20:02;;;;;;;4.30;4.00;;;9.80;70.50;;;;;;5064394;28;20886;-73
2022/11/13 08:22:31;;;;;;;4.30;3.90;;;10.00;69.20;;;;;;5059379;28;20440;-74
2022/11/13 08:24:58;;;;;;;4.50;4.20;;;10.20;67.50;;;;;;5055245;28;20925;-74
2022/11/13 08:27:25;;;;;;;4.50;4.10;;;10.30;67.00;;;;;;5056624;28;20451;-74
2022/11/13 08:29:52;;;;;;;4.30;4.00;;;10.40;66.40;;;;;;5061497;28;20514;-74
2022/11/13 08:32:21;;;;;;;4.60;4.20;;;10.50;66.10;;;;;;5059655;28;20441;-74
2022/11/13 08:34:48;;;;;;;4.43;4.13;;;10.70;65.80;;;;;;5058719;28;20899;-75
2022/11/13 08:37:14;;;;;;;4.50;4.20;;;10.80;65.50;;;;;;5058674;28;20513;-75
2022/11/13 08:39:43;;;;;;;4.22;3.92;;;11.00;65.10;;;;;;5064711;28;20446;-74
2022/11/13 08:42:10;;;;;;;4.80;4.40;;;11.20;64.80;;;;;;5061093;28;20450;-75
2022/11/13 08:44:36;;;;;;;4.25;3.90;;;11.40;63.10;;;;;;5062778;28;20557;-74
2022/11/13 08:47:03;;;;;;;3.95;3.65;;;11.60;61.80;;;;;;5063573;28;20431;-74
2022/11/13 08:49:30;;;;;;;3.80;3.50;;;11.70;60.60;;;;;;5057520;28;20489;-74
2022/11/13 08:51:57;;;;;;;3.47;3.17;;;11.90;59.40;;;;;;5054606;28;20452;-74
2022/11/13 08:54:24;;;;;;;4.28;3.97;;;12.10;59.40;;;;;;5059457;28;20945;-75
2022/11/13 08:56:52;;;;;;;3.70;3.40;;;12.20;58.60;;;;;;5063805;28;20408;-74
2022/11/13 08:59:19;;;;;;;3.95;3.20;;;12.20;57.90;;;;;;5062499;28;20443;-74
2022/11/13 09:01:46;;;;;;;3.80;3.50;;;12.20;58.20;;;;;;5059741;28;20447;-76
2022/11/13 09:04:12;;;;;;;4.30;4.00;;;12.10;58.20;;;;;;5061495;28;20450;-74
2022/11/13 09:06:39;;;;;;;3.75;3.45;;;12.10;58.20;;;;;;5056228;28;20421;-73
2022/11/13 09:09:06;;;;;;;4.30;4.00;;;12.30;58.50;;;;;;5056667;28;20423;-74
2022/11/13 09:11:34;;;;;;;3.88;3.58;;;12.50;56.90;;;;;;5055622;28;20554;-74
2022/11/13 09:14:02;;;;;;;4.00;3.60;;;12.80;56.90;;;;;;5055339;28;20438;-74
2022/11/13 09:16:28;;;;;;;4.68;4.00;;;12.90;56.40;;;;;;5063970;28;20431;-74
2022/11/13 09:18:55;;;;;;;4.00;3.70;;;13.10;56.80;;;;;;5056616;28;20427;-76
2022/11/13 09:21:22;;;;;;;3.75;3.45;;;13.40;55.90;;;;;;5060168;28;20925;-75
2022/11/13 09:23:49;;;;;;;3.97;3.60;;;13.50;54.30;;;;;;5059732;28;20527;-75
2022/11/13 09:26:16;;;;;;;3.85;3.55;;;13.60;53.50;;;;;;5056537;28;20628;-75
2022/11/13 09:28:43;;;;;;;3.42;3.22;;;13.70;51.90;;;;;;5058768;28;20435;-75
2022/11/13 09:31:11;;;;;;;3.90;3.60;;;13.80;51.90;;;;;;5056257;28;20431;-75
2022/11/13 09:33:38;;;;;;;3.60;3.30;;;13.80;51.90;;;;;;5057088;28;20428;-73
2022/11/13 09:36:10;;;;;;;3.60;3.30;;;13.80;51.30;;;;;;5053593;28;20459;-73
2022/11/13 09:38:37;;;;;;;3.58;3.28;;;13.80;52.20;;;;;;5064577;28;20423;-73
2022/11/13 09:41:09;;;;;;;3.80;3.50;;;14.10;51.90;;;;;;5056933;28;20438;-74
2022/11/13 09:43:41;;;;;;;3.70;3.40;;;14.40;50.80;;;;;;5060907;28;21180;-74
2022/11/13 09:46:16;;;;;;;3.60;3.30;;;14.60;50.00;;;;;;5066860;28;20481;-73
2022/11/13 09:48:47;;;;;;;3.60;3.30;;;14.70;49.20;;;;;;5066933;28;20416;-74
2022/11/13 09:51:18;;;;;;;3.55;3.25;;;14.60;49.50;;;;;;5060934;28;21081;-74
2022/11/13 09:53:45;;;;;;;3.58;3.38;;;14.70;49.60;;;;;;5064229;28;20423;-74
2022/11/13 09:56:34;;;;;;;3.78;3.47;;;14.90;49.30;;;;;;5052858;28;20437;-74
2022/11/13 09:59:05;;;;;;;2.93;2.73;;;14.90;48.30;;;;;;5056182;28;20454;-72
2022/11/13 10:01:47;;;;;;;3.55;3.25;;;15.00;47.80;;;;;;5060596;28;20441;-72
2022/11/13 10:04:19;;;;;;;3.28;3.00;;;15.00;47.90;;;;;;5063413;28;20508;-72
2022/11/13 10:07:06;;;;;;;3.20;2.90;;;15.10;47.90;;;;;;5063015;28;20431;-72
2022/11/13 10:09:51;;;;;;;3.50;3.20;;;15.10;48.70;;;;;;5056149;28;20503;-72
2022/11/13 10:12:20;;;;;;;3.20;2.90;;;15.20;47.40;;;;;;5065865;28;20418;-72
2022/11/13 10:14:50;;;;;;;3.00;2.80;;;15.50;46.80;;;;;;5061406;28;21078;-72
2022/11/13 10:17:24;;;;;;;3.10;2.80;;;15.70;45.80;;;;;;5065599;28;20439;-73
2022/11/13 10:19:57;;;;;;;3.28;2.70;;;15.70;46.20;;;;;;5057725;28;20450;-73
2022/11/13 10:22:31;;;;;;;3.00;2.70;;;15.70;46.10;;;;;;5054395;28;20544;-73
2022/11/13 10:25:04;;;;;;;2.95;2.75;;;15.80;45.80;;;;;;5058846;28;20877;-73
2022/11/13 10:27:31;;;;;;;2.73;2.53;;;15.90;45.60;;;;;;5063845;28;20955;-73
2022/11/13 10:29:58;;;;;;;2.80;2.60;;;16.10;44.90;;;;;;5064568;28;20801;-72
2022/11/13 10:32:30;;;;;;;3.30;2.60;;;16.20;44.40;;;;;;5057853;28;20476;-72
2022/11/13 10:35:01;;;;;;;2.30;2.10;;;16.30;44.00;;;;;;5060495;28;20454;-74
2022/11/13 10:37:37;;;;;;;3.28;2.65;;;16.40;43.60;;;;;;5058330;28;20431;-74
2022/11/13 10:40:04;;;;;;;2.70;2.50;;;16.50;43.20;;;;;;5059187;28;20424;-72
2022/11/13 10:42:37;;;;;;;2.60;2.40;;;16.60;42.50;;;;;;5055735;28;20435;-72
2022/11/13 10:45:05;;;;;;;2.65;2.45;;;16.60;42.40;;;;;;5051920;28;20427;-72
2022/11/13 10:47:33;;;;;;;3.40;3.10;;;16.60;42.50;;;;;;5058235;28;21193;-71
2022/11/13 10:50:09;;;;;;;3.17;2.97;;;17.00;41.90;;;;;;5063818;28;20950;-73
2022/11/13 10:52:45;;;;;;;3.20;2.90;;;17.20;41.60;;;;;;5061567;28;20952;-73
2022/11/13 10:55:22;;;;;;;2.47;2.28;;;17.50;41.00;;;;;;5062623;28;20413;-71
2022/11/13 10:57:56;;;;;;;2.70;2.50;;;17.60;40.00;;;;;;5068390;28;20896;-71
2022/11/13 11:00:26;;;;;;;2.63;2.42;;;17.70;40.10;;;;;;5064265;28;20416;-71
2022/11/13 11:02:54;;;;;;;2.75;2.00;;;17.70;39.50;;;;;;5061939;28;20442;-72
2022/11/13 11:05:23;;;;;;;2.80;2.40;;;17.80;39.50;;;;;;5061375;28;20449;-73
2022/11/13 11:07:50;;;;;;;2.33;2.13;;;17.70;39.10;;;;;;5058521;28;20617;-72
2022/11/13 11:10:30;;;;;;;2.30;2.10;;;17.70;38.70;;;;;;5054962;28;20423;-73
2022/11/13 11:13:02;;;;;;;2.50;2.30;;;17.60;38.90;;;;;;5060590;28;20444;-72
2022/11/13 11:15:36;;;;;;;2.17;1.90;;;17.50;39.30;;;;;;5062008;28;20436;-73
2022/11/13 11:18:13;;;;;;;2.15;1.92;;;17.40;39.10;;;;;;5055403;28;20454;-73
2022/11/13 11:20:45;;;;;;;2.30;1.83;;;17.20;39.80;;;;;;5062571;28;20443;-73
2022/11/13 11:23:31;;;;;;;2.30;2.10;;;17.10;39.20;;;;;;5061145;28;20442;-72
2022/11/13 11:26:00;;;;;;;2.43;1.80;;;17.00;39.80;;;;;;5060526;28;20497;-73
2022/11/13 11:28:32;;;;;;;2.78;1.90;;;17.00;40.00;;;;;;5064984;28;20492;-73
2022/11/13 11:31:08;;;;;;;1.80;1.70;;;17.00;39.70;;;;;;5064629;28;20431;-73
2022/11/13 11:33:52;;;;;;;2.30;2.10;;;17.20;39.50;;;;;;5052898;28;20513;-73
2022/11/13 11:36:27;;;;;;;2.30;2.10;;;17.40;39.50;;;;;;5062557;28;20431;-73
2022/11/13 11:39:00;;;;;;;2.30;2.10;;;17.80;39.30;;;;;;5051857;28;20424;-74
2022/11/13 11:41:32;;;;;;;2.42;2.00;;;18.00;39.00;;;;;;5064477;28;20438;-73
2022/11/13 11:44:09;;;;;;;2.40;2.20;;;18.20;39.00;;;;;;5058331;28;20419;-73
2022/11/13 11:46:36;;;;;;;2.45;2.25;;;18.30;38.30;;;;;;5046094;28;20499;-73
2022/11/13 11:49:05;;;;;;;2.10;1.90;;;18.40;38.80;;;;;;5051580;28;20426;-73
2022/11/13 11:51:37;;;;;;;2.40;2.10;;;18.70;38.50;;;;;;5065296;28;21022;-74
2022/11/13 11:54:17;;;;;;;1.90;1.80;;;19.10;37.80;;;;;;5060065;28;20431;-73
2022/11/13 11:56:48;;;;;;;2.40;2.20;;;19.50;36.30;;;;;;5063740;28;20435;-73
2022/11/13 11:59:45;;;;;;;2.08;1.90;;;19.60;36.30;;;;;;5054469;28;20459;-73
2022/11/13 12:02:50;;;;;;;2.17;1.98;;;19.70;36.10;;;;;;5055275;28;20460;-72
2022/11/13 12:05:23;;;;;;;2.10;2.00;;;19.90;35.70;;;;;;5058819;28;20512;-73
2022/11/13 12:08:05;;;;;;;2.00;1.60;;;20.00;34.90;;;;;;5055546;28;20505;-73
2022/11/13 12:10:42;;;;;;;2.90;1.90;;;20.00;34.30;;;;;;5067112;28;20419;-73
2022/11/13 12:13:27;;;;;;;2.92;1.80;;;20.20;33.70;;;;;;5066566;28;20431;-73
2022/11/13 12:16:01;;;;;;;2.20;1.98;;;20.20;33.80;;;;;;5057815;28;20930;-73
2022/11/13 12:18:36;;;;;;;2.00;1.90;;;20.50;33.10;;;;;;5059655;28;20445;-72
2022/11/13 12:21:18;;;;;;;1.80;1.70;;;20.80;32.80;;;;;;5060744;28;20433;-73
2022/11/13 12:24:05;;;;;;;1.92;1.83;;;21.20;31.90;;;;;;5055618;28;20453;-72
2022/11/13 12:26:38;;;;;;;1.80;1.70;;;21.50;31.50;;;;;;5056627;28;20475;-73
2022/11/13 12:29:13;;;;;;;1.70;1.60;;;21.70;31.20;;;;;;5057867;28;20549;-72
2022/11/13 12:32:04;;;;;;;1.90;1.80;;;21.80;30.20;;;;;;5057317;28;20440;-74
2022/11/13 12:34:37;;;;;;;2.03;1.80;;;21.90;30.70;;;;;;5061228;28;20454;-74
2022/11/13 12:37:12;;;;;;;1.80;1.70;;;22.20;30.20;;;;;;5058560;28;20892;-75
2022/11/13 12:39:46;;;;;;;1.80;1.70;;;22.60;30.10;;;;;;5058706;28;20427;-74
2022/11/13 12:42:21;;;;;;;1.70;1.60;;;23.00;29.60;;;;;;5052887;28;20457;-72
2022/11/13 12:44:59;;;;;;;1.90;1.80;;;23.30;28.50;;;;;;5055755;28;20468;-73
2022/11/13 12:47:26;;;;;;;1.80;1.50;;;23.60;28.30;;;;;;5051680;28;20418;-73
2022/11/13 12:50:01;;;;;;;2.00;1.60;;;24.00;28.10;;;;;;5058963;28;20423;-72
2022/11/13 12:52:29;;;;;;;1.80;1.70;;;24.30;28.10;;;;;;5060652;28;20763;-74
2022/11/13 12:55:08;;;;;;;1.70;1.50;;;24.60;27.40;;;;;;5054793;28;20456;-73
2022/11/13 12:57:35;;;;;;;1.65;1.55;;;24.50;27.30;;;;;;5059405;28;20434;-73
2022/11/13 13:00:21;;;;;;;2.00;1.80;;;24.40;26.50;;;;;;5061852;28;20523;-72
2022/11/13 13:02:56;;;;;;;1.40;1.20;;;23.90;27.70;;;;;;5055940;28;20425;-74
2022/11/13 13:05:37;;;;;;;1.60;1.50;;;24.10;26.90;;;;;;5058098;28;20429;-72